Time;durP1;ratioP1;P1;durP2;ratioP2;P2;SDS_P1;SDS_P2;PMS_P1;PMS_P2;Temp;Humidity;BMP_temperature;BMP_pressure;BME280_temperature;BME280_humidity;BME280_pressure;Samples;Min_cycle;Max_cycle;Signal;HPM_P1;HPM_P2
2023/07/24 00:00:14;;;;;;;0.43;0.43;;;17.10;99.90;;;;;;5155241;27;19927;-61
2023/07/24 00:02:40;;;;;;;5.45;1.20;;;16.90;99.90;;;;;;5154670;27;20160;-62
2023/07/24 00:05:06;;;;;;;;;;;16.70;99.90;;;;;;5155262;27;20129;-63
2023/07/24 00:07:31;;;;;;;0.52;0.52;;;16.60;99.90;;;;;;5155113;27;20292;-62
2023/07/24 00:09:57;;;;;;;;;;;16.90;99.90;;;;;;5155404;27;20532;-62
2023/07/24 00:12:23;;;;;;;1.77;1.65;;;16.70;99.90;;;;;;5136621;27;19919;-61
2023/07/24 00:14:48;;;;;;;;;;;16.60;99.90;;;;;;5155235;27;20522;-61
2023/07/24 00:17:14;;;;;;;0.63;0.63;;;16.80;99.90;;;;;;5154746;27;19923;-62
2023/07/24 00:19:40;;;;;;;;;;;16.60;99.90;;;;;;5155008;27;20047;-62
2023/07/24 00:22:05;;;;;;;1.10;1.10;;;16.60;99.90;;;;;;5154701;27;20021;-61
2023/07/24 00:24:31;;;;;;;;;;;16.60;99.90;;;;;;5154777;27;20053;-61
2023/07/24 00:26:57;;;;;;;0.25;0.25;;;16.90;99.90;;;;;;5153964;27;20483;-62
2023/07/24 00:29:23;;;;;;;;;;;16.80;99.90;;;;;;5154946;27;20129;-61
2023/07/24 00:31:49;;;;;;;0.65;0.52;;;16.70;99.90;;;;;;5154403;27;19960;-61
2023/07/24 00:34:14;;;;;;;;;;;16.90;99.90;;;;;;5154698;27;20042;-61
2023/07/24 00:36:40;;;;;;;3.20;1.70;;;16.80;99.90;;;;;;5135898;27;20471;-62
2023/07/24 00:39:06;;;;;;;;;;;17.00;99.90;;;;;;5154836;27;20047;-62
2023/07/24 00:41:32;;;;;;;1.25;1.15;;;16.70;99.90;;;;;;5154291;27;19923;-62
2023/07/24 00:43:58;;;;;;;6.65;1.65;;;17.10;99.90;;;;;;5154221;27;20038;-62
2023/07/24 00:46:24;;;;;;;;;;;16.80;99.90;;;;;;5154616;27;20051;-62
2023/07/24 00:48:51;;;;;;;4.20;1.45;;;16.70;99.90;;;;;;5154020;27;20305;-62
2023/07/24 00:51:17;;;;;;;0.30;0.30;;;16.90;99.90;;;;;;5153993;27;20058;-62
2023/07/24 00:53:43;;;;;;;0.57;0.45;;;16.60;99.90;;;;;;5154155;27;20110;-62
2023/07/24 00:56:09;;;;;;;;;;;16.40;99.90;;;;;;5154380;27;20424;-62
2023/07/24 00:58:37;;;;;;;0.93;0.40;;;17.10;99.90;;;;;;5153911;27;19970;-63
2023/07/24 01:01:03;;;;;;;0.55;0.55;;;16.70;99.90;;;;;;5153894;27;20042;-65
2023/07/24 01:03:34;;;;;;;0.57;0.20;;;16.70;99.90;;;;;;5153974;27;20149;-63
2023/07/24 01:06:02;;;;;;;1.17;0.75;;;16.50;99.90;;;;;;5154116;27;20406;-63
2023/07/24 01:08:28;;;;;;;0.30;0.30;;;16.70;99.90;;;;;;5153885;27;20093;-64
2023/07/24 01:11:03;;;;;;;0.82;0.70;;;16.60;99.90;;;;;;5153653;27;20393;-63
2023/07/24 01:13:32;;;;;;;0.38;0.38;;;16.70;99.90;;;;;;5153663;27;20521;-63
2023/07/24 01:16:14;;;;;;;0.20;0.20;;;16.40;99.90;;;;;;5153502;27;20058;-65
2023/07/24 01:18:42;;;;;;;0.45;0.45;;;16.20;99.90;;;;;;5153788;27;20053;-64
2023/07/24 01:21:11;;;;;;;0.20;0.20;;;16.60;99.90;;;;;;5153723;27;20062;-65
2023/07/24 01:23:58;;;;;;;0.40;0.32;;;16.70;99.90;;;;;;5153358;27;20091;-64
2023/07/24 01:26:25;;;;;;;0.40;0.40;;;16.40;99.90;;;;;;5153593;27;20051;-64
2023/07/24 01:28:51;;;;;;;0.25;0.25;;;16.30;99.90;;;;;;5153583;27;20213;-63
2023/07/24 01:31:17;;;;;;;0.40;0.40;;;16.50;99.90;;;;;;5153831;27;20039;-64
2023/07/24 01:33:43;;;;;;;;;;;16.40;99.90;;;;;;5154039;27;20067;-63
2023/07/24 01:36:10;;;;;;;0.57;0.50;;;16.30;99.90;;;;;;5153204;27;19927;-63
2023/07/24 01:38:37;;;;;;;5.00;0.98;;;16.70;99.90;;;;;;5153369;27;20459;-64
2023/07/24 01:41:06;;;;;;;0.45;0.45;;;16.20;99.90;;;;;;5153163;27;20046;-63
2023/07/24 01:43:32;;;;;;;0.47;0.47;;;16.30;99.90;;;;;;5153350;27;20042;-63
2023/07/24 01:45:57;;;;;;;;;;;16.50;99.90;;;;;;5153747;27;20049;-63
2023/07/24 01:48:23;;;;;;;0.40;0.35;;;16.60;99.90;;;;;;5153271;27;19933;-63
2023/07/24 01:50:49;;;;;;;;;;;16.70;99.90;;;;;;5153603;27;20050;-63
2023/07/24 01:53:15;;;;;;;0.80;0.80;;;16.80;99.90;;;;;;5153442;27;20393;-64
2023/07/24 01:55:41;;;;;;;;;;;16.90;99.90;;;;;;5153466;27;20046;-63
2023/07/24 01:58:07;;;;;;;0.57;0.40;;;16.90;99.90;;;;;;5153272;27;20425;-63
2023/07/24 02:00:32;;;;;;;;;;;17.10;99.90;;;;;;5135066;27;20055;-63
2023/07/24 02:02:58;;;;;;;0.90;0.90;;;16.60;99.90;;;;;;5152737;27;19966;-64
2023/07/24 02:05:24;;;;;;;;;;;16.90;99.90;;;;;;5134877;27;20051;-63
2023/07/24 02:07:49;;;;;;;0.65;0.63;;;16.80;99.90;;;;;;5153218;27;19919;-63
2023/07/24 02:10:15;;;;;;;0.70;0.65;;;16.60;99.90;;;;;;5153047;27;20043;-66
2023/07/24 02:12:41;;;;;;;;;;;16.80;99.90;;;;;;5153632;27;20049;-63
2023/07/24 02:15:07;;;;;;;0.75;0.75;;;17.20;99.90;;;;;;5153040;27;20021;-64
2023/07/24 02:17:33;;;;;;;0.15;0.15;;;16.60;99.90;;;;;;5152915;27;20049;-63
2023/07/24 02:19:58;;;;;;;;;;;17.20;99.90;;;;;;5153294;27;20468;-65
2023/07/24 02:22:24;;;;;;;0.40;0.40;;;16.70;99.90;;;;;;5152661;27;19919;-63
2023/07/24 02:24:50;;;;;;;0.65;0.65;;;16.90;99.90;;;;;;5152676;27;20447;-63
2023/07/24 02:27:26;;;;;;;;;;;17.20;99.90;;;;;;5153327;27;20039;-64
2023/07/24 02:29:52;;;;;;;0.20;0.20;;;16.80;99.90;;;;;;5152813;27;19972;-65
2023/07/24 02:32:21;;;;;;;;;;;16.90;99.90;;;;;;5153208;27;20042;-63
2023/07/24 02:34:47;;;;;;;1.70;1.60;;;16.80;99.90;;;;;;5134311;27;20374;-64
2023/07/24 02:37:12;;;;;;;;;;;17.20;99.90;;;;;;5152998;27;20053;-64
2023/07/24 02:39:38;;;;;;;4.47;1.02;;;16.60;99.90;;;;;;5152422;27;19930;-64
2023/07/24 02:42:04;;;;;;;;;;;17.20;99.90;;;;;;5153030;27;20083;-63
2023/07/24 02:44:29;;;;;;;0.98;0.75;;;16.80;99.90;;;;;;5152622;27;20400;-63
2023/07/24 02:46:55;;;;;;;;;;;16.50;99.90;;;;;;5152964;27;20050;-63
2023/07/24 02:49:20;;;;;;;0.52;0.52;;;16.70;99.90;;;;;;5154556;27;19923;-64
2023/07/24 02:51:46;;;;;;;;;;;16.90;99.90;;;;;;5156793;27;20050;-64
2023/07/24 02:54:12;;;;;;;0.35;0.35;;;17.00;99.90;;;;;;5156304;27;20446;-64
2023/07/24 02:56:39;;;;;;;;;;;17.00;99.90;;;;;;5156888;27;20046;-63
2023/07/24 02:59:04;;;;;;;0.75;0.75;;;17.10;99.90;;;;;;5156411;27;19922;-64
2023/07/24 03:01:30;;;;;;;0.65;0.65;;;16.80;99.90;;;;;;5155916;27;20504;-64
2023/07/24 03:03:55;;;;;;;;;;;17.00;99.90;;;;;;5156662;27;20054;-63
2023/07/24 03:06:21;;;;;;;0.85;0.85;;;16.40;99.90;;;;;;5156043;27;20324;-64
2023/07/24 03:08:47;;;;;;;0.95;0.95;;;17.00;99.90;;;;;;5155998;27;20123;-63
2023/07/24 03:11:13;;;;;;;0.40;0.40;;;16.70;99.90;;;;;;5156217;27;20099;-64
2023/07/24 03:13:40;;;;;;;;;;;16.90;99.90;;;;;;5156512;27;20034;-63
2023/07/24 03:16:06;;;;;;;0.98;0.47;;;17.00;99.90;;;;;;5156023;27;19966;-63
2023/07/24 03:18:32;;;;;;;;;;;16.80;99.90;;;;;;5156222;27;20105;-63
2023/07/24 03:20:59;;;;;;;0.88;0.45;;;16.90;99.90;;;;;;5155845;27;19930;-63
2023/07/24 03:23:24;;;;;;;0.80;0.68;;;16.70;99.90;;;;;;5155656;27;20043;-63
2023/07/24 03:25:50;;;;;;;;;;;17.30;99.90;;;;;;5156363;27;20057;-63
2023/07/24 03:28:16;;;;;;;0.85;0.50;;;16.50;99.90;;;;;;5155863;27;19923;-63
2023/07/24 03:30:41;;;;;;;;;;;16.90;99.90;;;;;;5156199;27;20050;-63
2023/07/24 03:33:07;;;;;;;1.83;0.38;;;16.80;99.90;;;;;;5155630;27;20275;-63
2023/07/24 03:35:33;;;;;;;;;;;16.90;99.90;;;;;;5155997;27;20053;-63
2023/07/24 03:37:59;;;;;;;0.32;0.25;;;17.00;99.90;;;;;;5136947;27;19934;-64
2023/07/24 03:40:24;;;;;;;0.88;0.88;;;16.90;99.90;;;;;;5155456;27;20046;-63
2023/07/24 03:42:50;;;;;;;1.20;0.73;;;16.70;99.90;;;;;;5155523;27;20123;-63
2023/07/24 03:45:16;;;;;;;;;;;16.90;99.90;;;;;;5155870;27;20584;-63
2023/07/24 03:47:41;;;;;;;0.40;0.40;;;16.80;99.90;;;;;;5155406;27;19923;-64
2023/07/24 03:50:07;;;;;;;;;;;17.00;99.90;;;;;;5156059;27;20043;-63
2023/07/24 03:52:33;;;;;;;0.43;0.40;;;16.60;99.90;;;;;;5155289;27;19926;-63
2023/07/24 03:54:59;;;;;;;0.73;0.40;;;16.90;99.90;;;;;;5155396;27;20188;-63
2023/07/24 03:57:24;;;;;;;1.50;0.88;;;17.00;99.90;;;;;;5155213;27;20042;-63
2023/07/24 03:59:50;;;;;;;3.17;1.67;;;17.20;99.90;;;;;;5155124;27;20046;-63
2023/07/24 04:02:15;;;;;;;;;;;16.70;99.90;;;;;;5155513;27;20381;-63
2023/07/24 04:04:41;;;;;;;1.38;1.17;;;16.70;99.90;;;;;;5154962;27;19946;-63
2023/07/24 04:07:07;;;;;;;;;;;17.00;99.90;;;;;;5155276;27;20043;-63
2023/07/24 04:09:32;;;;;;;1.35;1.00;;;16.70;99.90;;;;;;5155071;27;19946;-65
2023/07/24 04:11:58;;;;;;;2.35;1.15;;;16.80;99.90;;;;;;5136435;27;20513;-63
2023/07/24 04:14:24;;;;;;;1.58;0.63;;;16.60;99.90;;;;;;5154721;27;20082;-63
2023/07/24 04:16:49;;;;;;;;;;;16.50;99.90;;;;;;5136861;27;20042;-64
2023/07/24 04:19:15;;;;;;;0.80;0.65;;;17.10;99.90;;;;;;5136275;27;20425;-64
2023/07/24 04:21:41;;;;;;;;;;;16.90;99.90;;;;;;5154901;27;20437;-63
2023/07/24 04:24:07;;;;;;;1.20;0.90;;;17.00;99.90;;;;;;5154638;27;19945;-64
2023/07/24 04:26:32;;;;;;;0.80;0.40;;;17.20;99.90;;;;;;5154920;27;20113;-63
2023/07/24 04:28:58;;;;;;;;;;;17.10;99.90;;;;;;5154962;27;20130;-63
2023/07/24 04:31:23;;;;;;;0.52;0.52;;;17.00;99.90;;;;;;5154217;27;19945;-63
2023/07/24 04:33:49;;;;;;;;;;;16.90;99.90;;;;;;5154675;27;20050;-63
2023/07/24 04:36:15;;;;;;;1.27;0.85;;;17.30;99.90;;;;;;5154242;27;19962;-63
2023/07/24 04:38:40;;;;;;;;;;;17.10;99.90;;;;;;5154893;27;20562;-63
2023/07/24 04:41:06;;;;;;;0.32;0.32;;;17.20;99.90;;;;;;5154434;27;19978;-64
2023/07/24 04:43:32;;;;;;;0.30;0.30;;;17.00;99.90;;;;;;5154148;27;20504;-63
2023/07/24 04:45:57;;;;;;;;;;;17.00;99.90;;;;;;5154622;27;20379;-64
2023/07/24 04:48:23;;;;;;;2.53;0.55;;;17.20;99.90;;;;;;5135505;27;19922;-63
2023/07/24 04:50:56;;;;;;;0.32;0.32;;;16.90;99.90;;;;;;5153868;27;20106;-63
2023/07/24 04:53:22;;;;;;;0.63;0.50;;;17.10;99.90;;;;;;5135693;27;20078;-63
2023/07/24 04:55:48;;;;;;;2.58;1.40;;;16.60;99.90;;;;;;5154046;27;20098;-63
2023/07/24 04:58:14;;;;;;;;;;;16.90;99.90;;;;;;5154418;27;20043;-63
2023/07/24 05:00:39;;;;;;;1.23;0.63;;;17.20;99.90;;;;;;5135404;27;19927;-63
2023/07/24 05:03:06;;;;;;;0.30;0.30;;;16.90;99.90;;;;;;5153946;27;20412;-63
2023/07/24 05:05:32;;;;;;;0.38;0.38;;;17.30;99.90;;;;;;5135206;27;20513;-64
2023/07/24 05:07:57;;;;;;;;;;;17.10;99.90;;;;;;5154248;27;20076;-64
2023/07/24 05:10:23;;;;;;;0.50;0.50;;;17.00;99.90;;;;;;5153817;27;19919;-63
2023/07/24 05:12:49;;;;;;;0.70;0.70;;;16.80;99.90;;;;;;5117663;27;20074;-63
2023/07/24 05:15:16;;;;;;;0.45;0.45;;;16.80;99.90;;;;;;5153555;27;20493;-63
2023/07/24 05:17:43;;;;;;;0.40;0.40;;;17.20;99.90;;;;;;5153649;27;20050;-63
2023/07/24 05:20:09;;;;;;;0.65;0.30;;;17.00;99.90;;;;;;5153533;27;20069;-63
2023/07/24 05:22:35;;;;;;;1.50;0.35;;;17.20;99.90;;;;;;5153595;27;20035;-63
2023/07/24 05:25:00;;;;;;;;;;;17.20;99.90;;;;;;5154043;27;20066;-64
2023/07/24 05:27:26;;;;;;;0.60;0.60;;;17.00;99.90;;;;;;5153518;27;19923;-63
2023/07/24 05:29:52;;;;;;;;;;;17.50;99.90;;;;;;5153916;27;20122;-63
2023/07/24 05:32:17;;;;;;;1.88;1.30;;;17.20;99.90;;;;;;5135161;27;19974;-64
2023/07/24 05:34:43;;;;;;;1.15;0.95;;;17.60;99.90;;;;;;5153210;27;20058;-64
2023/07/24 05:37:09;;;;;;;;;;;17.40;99.90;;;;;;5153949;27;20045;-62
2023/07/24 05:39:35;;;;;;;0.63;0.63;;;17.70;99.90;;;;;;5135203;27;19923;-63
2023/07/24 05:42:00;;;;;;;;;;;17.40;99.90;;;;;;5135641;27;20478;-63
2023/07/24 05:44:26;;;;;;;0.63;0.63;;;17.30;99.90;;;;;;5153708;27;19919;-63
2023/07/24 05:46:52;;;;;;;0.73;0.73;;;17.30;99.90;;;;;;5153631;27;20481;-63
2023/07/24 05:49:18;;;;;;;0.32;0.30;;;17.40;99.90;;;;;;5153311;27;20153;-63
2023/07/24 05:51:43;;;;;;;;;;;18.20;99.90;;;;;;5135098;27;20133;-64
2023/07/24 05:54:09;;;;;;;0.38;0.38;;;17.10;99.90;;;;;;5153252;27;19923;-64
2023/07/24 05:56:34;;;;;;;;;;;17.30;99.90;;;;;;5153616;27;20038;-63
2023/07/24 05:59:00;;;;;;;0.28;0.20;;;17.30;99.90;;;;;;5153090;27;19919;-63
2023/07/24 06:01:26;;;;;;;0.30;0.22;;;17.20;99.90;;;;;;5152741;27;20057;-63
2023/07/24 06:03:51;;;;;;;4.05;1.05;;;17.10;99.90;;;;;;5152666;27;20109;-63
2023/07/24 06:06:17;;;;;;;0.60;0.60;;;16.90;99.90;;;;;;5152865;27;20047;-63
2023/07/24 06:08:43;;;;;;;0.52;0.45;;;17.20;99.90;;;;;;5153036;27;20055;-63
2023/07/24 06:11:10;;;;;;;0.50;0.50;;;17.50;99.90;;;;;;5152922;27;20058;-64
2023/07/24 06:13:35;;;;;;;0.32;0.32;;;17.80;99.90;;;;;;5152915;27;20043;-65
2023/07/24 06:16:01;;;;;;;;;;;17.70;99.90;;;;;;5135020;27;20371;-63
2023/07/24 06:18:27;;;;;;;0.98;0.98;;;17.60;99.90;;;;;;5152710;27;19971;-63
2023/07/24 06:20:53;;;;;;;4.43;0.63;;;17.70;99.90;;;;;;5152921;27;20049;-63
2023/07/24 06:23:19;;;;;;;0.73;0.40;;;17.90;99.90;;;;;;5153318;27;20085;-64
2023/07/24 06:25:44;;;;;;;;;;;18.30;99.90;;;;;;5157447;27;20078;-64
2023/07/24 06:28:10;;;;;;;0.43;0.28;;;18.00;99.90;;;;;;5156840;27;19923;-64
2023/07/24 06:30:37;;;;;;;5.25;1.75;;;18.30;99.90;;;;;;5156732;27;20082;-63
2023/07/24 06:33:03;;;;;;;1.60;0.93;;;18.20;99.90;;;;;;5156639;27;20042;-63
2023/07/24 06:35:29;;;;;;;;;;;18.40;99.90;;;;;;5152892;27;20397;-68
2023/07/24 06:37:54;;;;;;;0.52;0.25;;;18.60;99.90;;;;;;5149499;27;19930;-63
2023/07/24 06:40:20;;;;;;;0.52;0.43;;;18.50;99.90;;;;;;5156334;27;20050;-65
2023/07/24 06:42:46;;;;;;;0.22;0.22;;;18.90;99.90;;;;;;5156266;27;20049;-63
2023/07/24 06:45:12;;;;;;;0.60;0.47;;;18.40;99.90;;;;;;5155873;27;20150;-64
2023/07/24 06:47:38;;;;;;;1.00;0.70;;;18.70;99.90;;;;;;5155982;27;20092;-63
2023/07/24 06:50:04;;;;;;;1.65;0.93;;;18.70;99.90;;;;;;5156235;27;20042;-64
2023/07/24 06:52:34;;;;;;;0.55;0.43;;;18.70;99.90;;;;;;5155300;27;20046;-63
2023/07/24 06:55:00;;;;;;;0.45;0.45;;;18.70;99.90;;;;;;5137455;27;20053;-63
2023/07/24 06:57:25;;;;;;;1.55;0.73;;;18.70;99.90;;;;;;5155911;27;20130;-63
2023/07/24 06:59:51;;;;;;;1.48;0.70;;;19.10;99.90;;;;;;5155574;27;20057;-63
2023/07/24 07:02:17;;;;;;;7.13;0.68;;;19.00;99.90;;;;;;5155496;27;20062;-63
2023/07/24 07:04:43;;;;;;;0.63;0.60;;;19.30;99.90;;;;;;5155600;27;20498;-65
2023/07/24 07:07:10;;;;;;;0.88;0.65;;;19.20;99.90;;;;;;5136485;27;20411;-63
2023/07/24 07:09:35;;;;;;;0.20;0.20;;;18.80;99.90;;;;;;5155358;27;20114;-63
2023/07/24 07:12:01;;;;;;;0.63;0.63;;;19.20;99.90;;;;;;5155543;27;20050;-64
2023/07/24 07:14:27;;;;;;;1.15;0.90;;;19.60;99.90;;;;;;5136781;27;20042;-64
2023/07/24 07:16:52;;;;;;;3.92;0.35;;;19.50;99.90;;;;;;5155393;27;20043;-63
2023/07/24 07:19:18;;;;;;;7.32;1.27;;;19.50;99.90;;;;;;5155796;27;20106;-63
2023/07/24 07:21:44;;;;;;;1.75;0.55;;;19.70;99.90;;;;;;5154704;27;20070;-64
2023/07/24 07:24:09;;;;;;;0.93;0.85;;;19.80;99.90;;;;;;5137011;27;20104;-63
2023/07/24 07:26:35;;;;;;;1.80;0.65;;;19.30;99.90;;;;;;5155411;27;20486;-62
2023/07/24 07:29:01;;;;;;;0.60;0.60;;;19.30;99.90;;;;;;5151802;27;20130;-64
2023/07/24 07:31:26;;;;;;;0.17;0.17;;;19.80;99.90;;;;;;5153707;27;20047;-62
2023/07/24 07:33:52;;;;;;;0.63;0.63;;;19.60;99.90;;;;;;5155005;27;20051;-64
2023/07/24 07:36:18;;;;;;;0.80;0.80;;;19.90;99.90;;;;;;5155340;27;20043;-63
2023/07/24 07:38:44;;;;;;;0.80;0.80;;;19.70;99.90;;;;;;5155717;27;20046;-63
2023/07/24 07:41:09;;;;;;;0.30;0.30;;;19.60;99.90;;;;;;5156002;27;20057;-66
2023/07/24 07:43:36;;;;;;;1.95;0.82;;;19.80;99.90;;;;;;5155447;27;20046;-63
2023/07/24 07:46:02;;;;;;;2.63;0.50;;;19.80;99.90;;;;;;5136837;27;20042;-64
2023/07/24 07:48:28;;;;;;;2.63;1.60;;;19.80;99.90;;;;;;5155621;27;20049;-65
2023/07/24 07:50:55;;;;;;;0.90;0.52;;;19.50;99.90;;;;;;5155562;27;20039;-64
2023/07/24 07:53:20;;;;;;;0.30;0.30;;;19.80;99.90;;;;;;5155426;27;20042;-64
2023/07/24 07:55:46;;;;;;;1.65;1.33;;;19.60;99.90;;;;;;5155286;27;20394;-64
2023/07/24 07:58:12;;;;;;;0.75;0.75;;;19.70;99.90;;;;;;5155225;27;20050;-65
2023/07/24 08:00:40;;;;;;;2.92;0.73;;;20.00;99.90;;;;;;5155117;27;20100;-64
2023/07/24 08:03:06;;;;;;;0.60;0.60;;;19.90;99.90;;;;;;5154599;27;20111;-65
2023/07/24 08:05:32;;;;;;;1.25;0.57;;;19.80;99.90;;;;;;5136925;27;20058;-63
2023/07/24 08:07:58;;;;;;;1.35;0.77;;;19.80;99.90;;;;;;5154925;27;20047;-63
2023/07/24 08:10:24;;;;;;;0.68;0.60;;;20.20;99.90;;;;;;5155089;27;20072;-65
2023/07/24 08:12:49;;;;;;;2.63;1.33;;;19.80;99.90;;;;;;5154920;27;20047;-63
2023/07/24 08:15:15;;;;;;;0.98;0.88;;;19.90;99.90;;;;;;5154783;27;20095;-65
2023/07/24 08:17:41;;;;;;;0.40;0.38;;;20.00;99.90;;;;;;5154999;27;20775;-63
2023/07/24 08:20:07;;;;;;;5.20;1.40;;;22.80;99.90;;;;;;5154910;27;20118;-66
2023/07/24 08:22:33;;;;;;;0.70;0.70;;;20.20;99.90;;;;;;5154781;27;20039;-64
2023/07/24 08:24:58;;;;;;;0.60;0.60;;;20.40;99.90;;;;;;5136448;27;20463;-63
2023/07/24 08:27:24;;;;;;;0.73;0.60;;;20.60;99.90;;;;;;5136154;27;20402;-65
2023/07/24 08:29:53;;;;;;;1.05;0.98;;;20.40;99.90;;;;;;5154458;27;20098;-66
2023/07/24 08:32:19;;;;;;;0.57;0.55;;;20.60;99.90;;;;;;5154691;27;20058;-64
2023/07/24 08:34:45;;;;;;;1.15;1.05;;;20.30;99.90;;;;;;5154690;27;20057;-65
2023/07/24 08:37:11;;;;;;;1.42;1.33;;;20.60;99.90;;;;;;5154543;27;20125;-63
2023/07/24 08:39:38;;;;;;;1.25;1.15;;;20.80;99.90;;;;;;5154345;27;20091;-64
2023/07/24 08:42:14;;;;;;;0.88;0.57;;;20.60;99.90;;;;;;5154324;27;20034;-63
2023/07/24 08:44:41;;;;;;;0.30;0.28;;;20.50;99.90;;;;;;5154246;27;20051;-64
2023/07/24 08:47:11;;;;;;;0.40;0.40;;;20.50;99.90;;;;;;5153533;27;20121;-63
2023/07/24 08:49:40;;;;;;;4.22;1.80;;;20.50;99.90;;;;;;5154273;27;20081;-64
2023/07/24 08:52:06;;;;;;;1.75;0.88;;;20.10;99.90;;;;;;5154251;27;20043;-65
2023/07/24 08:54:34;;;;;;;1.73;0.65;;;20.00;99.90;;;;;;5154224;27;20471;-64
2023/07/24 08:57:01;;;;;;;1.40;1.15;;;20.20;99.90;;;;;;5153980;27;20224;-66
2023/07/24 08:59:28;;;;;;;1.10;0.85;;;20.20;99.90;;;;;;5154242;27;20043;-65
2023/07/24 09:01:54;;;;;;;2.28;0.82;;;20.20;99.90;;;;;;5154260;27;20138;-64
2023/07/24 09:04:20;;;;;;;1.00;0.85;;;20.60;99.90;;;;;;5133415;27;20105;-64
2023/07/24 09:06:45;;;;;;;0.55;0.55;;;21.30;99.90;;;;;;5133525;27;20069;-68
2023/07/24 09:09:15;;;;;;;1.38;1.27;;;21.60;99.90;;;;;;5133493;27;20051;-65
2023/07/24 09:11:51;;;;;;;1.08;0.98;;;21.60;99.90;;;;;;5133125;27;20073;-67
2023/07/24 09:14:22;;;;;;;5.18;2.10;;;21.90;99.90;;;;;;5133231;27;20050;-65
2023/07/24 09:16:47;;;;;;;0.80;0.80;;;21.90;99.90;;;;;;5133020;27;20164;-64
2023/07/24 09:19:20;;;;;;;1.92;0.80;;;21.30;99.90;;;;;;5133010;27;20130;-63
2023/07/24 09:21:45;;;;;;;1.20;0.80;;;21.40;99.90;;;;;;5132793;27;20840;-64
2023/07/24 09:24:13;;;;;;;0.22;0.22;;;20.90;99.90;;;;;;5132820;27;20078;-65
2023/07/24 09:26:52;;;;;;;4.63;0.47;;;20.40;99.90;;;;;;5133080;27;20050;-64
2023/07/24 09:29:18;;;;;;;2.20;0.70;;;20.20;99.90;;;;;;5132924;27;20043;-64
2023/07/24 09:31:45;;;;;;;0.77;0.77;;;19.90;99.90;;;;;;5132734;27;20510;-65
2023/07/24 09:34:18;;;;;;;0.60;0.60;;;20.00;99.90;;;;;;5131860;27;20051;-65
2023/07/24 09:36:45;;;;;;;0.88;0.35;;;19.80;99.90;;;;;;5132742;27;20054;-61
2023/07/24 09:39:11;;;;;;;0.50;0.50;;;18.80;99.90;;;;;;5132862;27;20051;-61
2023/07/24 09:41:39;;;;;;;0.77;0.60;;;18.80;99.90;;;;;;5131623;27;20047;-63
2023/07/24 09:44:05;;;;;;;0.65;0.65;;;18.60;99.90;;;;;;5132650;27;20051;-61
2023/07/24 09:46:32;;;;;;;1.00;0.70;;;18.20;99.90;;;;;;5132623;27;20039;-61
2023/07/24 09:48:58;;;;;;;4.80;1.65;;;18.60;99.90;;;;;;5132484;27;20051;-62
2023/07/24 09:51:23;;;;;;;1.20;0.57;;;18.50;99.90;;;;;;5132439;27;20039;-61
2023/07/24 09:54:01;;;;;;;0.20;0.20;;;18.60;99.90;;;;;;5132546;27;20475;-62
2023/07/24 09:56:28;;;;;;;0.45;0.45;;;18.70;99.90;;;;;;5132597;27;20054;-63
2023/07/24 09:58:55;;;;;;;0.32;0.32;;;18.60;99.90;;;;;;5130994;27;20040;-62
2023/07/24 10:01:22;;;;;;;2.45;0.47;;;19.00;99.90;;;;;;5132317;27;20123;-63
2023/07/24 10:03:49;;;;;;;0.40;0.40;;;18.70;99.90;;;;;;5148329;27;20106;-63
2023/07/24 10:06:16;;;;;;;0.75;0.70;;;18.90;99.90;;;;;;5153236;27;20103;-62
2023/07/24 10:08:43;;;;;;;0.80;0.43;;;19.10;99.90;;;;;;5153433;27;20502;-63
2023/07/24 10:11:11;;;;;;;0.68;0.68;;;19.20;99.90;;;;;;5153323;27;20094;-62
2023/07/24 10:13:37;;;;;;;3.58;0.68;;;19.10;99.90;;;;;;5153011;27;20110;-63
2023/07/24 10:16:06;;;;;;;0.65;0.65;;;19.40;99.90;;;;;;5152799;27;20050;-65
2023/07/24 10:18:33;;;;;;;1.35;1.25;;;19.50;99.90;;;;;;5152836;27;20051;-63
2023/07/24 10:21:07;;;;;;;0.52;0.52;;;19.30;99.90;;;;;;5152968;27;20051;-63
2023/07/24 10:23:40;;;;;;;0.40;0.40;;;19.20;99.90;;;;;;5152761;27;20039;-62
2023/07/24 10:26:06;;;;;;;0.52;0.52;;;19.40;99.90;;;;;;5152890;27;20099;-62
2023/07/24 10:28:38;;;;;;;0.80;0.70;;;19.40;99.90;;;;;;5152856;27;20506;-63
2023/07/24 10:31:08;;;;;;;0.47;0.47;;;19.60;99.90;;;;;;5131982;27;20055;-63
2023/07/24 10:33:37;;;;;;;0.47;0.47;;;19.90;99.90;;;;;;5130326;28;20100;-63
2023/07/24 10:36:09;;;;;;;0.65;0.65;;;20.10;99.90;;;;;;5111939;28;20047;-64
2023/07/24 10:38:37;;;;;;;0.30;0.30;;;20.60;99.90;;;;;;5131809;28;20414;-62
2023/07/24 10:41:04;;;;;;;1.40;0.75;;;21.00;99.90;;;;;;5131895;28;20087;-63
2023/07/24 10:43:44;;;;;;;0.50;0.47;;;21.10;99.90;;;;;;5131784;28;20043;-63
2023/07/24 10:46:10;;;;;;;0.30;0.30;;;20.60;99.90;;;;;;5132156;28;20471;-63
2023/07/24 10:48:36;;;;;;;3.20;0.93;;;20.30;99.90;;;;;;5132025;28;20039;-63
2023/07/24 10:51:08;;;;;;;0.73;0.73;;;20.20;99.90;;;;;;5131929;28;20073;-64
2023/07/24 10:53:38;;;;;;;0.75;0.75;;;20.20;99.90;;;;;;5113804;28;20522;-63
2023/07/24 10:56:05;;;;;;;0.40;0.40;;;19.70;99.90;;;;;;5131939;28;20047;-63
2023/07/24 10:58:31;;;;;;;1.00;0.88;;;20.00;99.90;;;;;;5131990;28;20133;-64
2023/07/24 11:00:58;;;;;;;0.60;0.60;;;20.10;99.90;;;;;;5131656;28;20563;-63
2023/07/24 11:03:25;;;;;;;0.30;0.30;;;19.90;99.90;;;;;;5131437;28;20063;-63
2023/07/24 11:05:51;;;;;;;0.88;0.88;;;20.50;99.90;;;;;;5131548;28;20055;-64
2023/07/24 11:08:19;;;;;;;0.43;0.43;;;20.20;99.90;;;;;;5131529;28;20043;-64
2023/07/24 11:11:04;;;;;;;0.57;0.52;;;20.40;99.90;;;;;;5134412;27;20084;-63
2023/07/24 11:13:30;;;;;;;0.40;0.40;;;20.00;99.90;;;;;;5135518;27;20047;-63
2023/07/24 11:15:55;;;;;;;0.55;0.55;;;20.20;99.90;;;;;;5135214;27;20192;-65
2023/07/24 11:18:22;;;;;;;0.90;0.90;;;20.20;99.90;;;;;;5135266;27;20047;-64
2023/07/24 11:20:52;;;;;;;0.45;0.45;;;20.00;99.90;;;;;;5135134;27;20058;-64
2023/07/24 11:23:18;;;;;;;1.38;0.70;;;20.30;99.90;;;;;;5135283;27;20047;-63
2023/07/24 11:25:45;;;;;;;0.57;0.57;;;20.60;99.90;;;;;;5135263;27;20479;-64
2023/07/24 11:28:14;;;;;;;1.27;1.10;;;20.30;99.90;;;;;;5135550;27;20107;-65
2023/07/24 11:30:40;;;;;;;0.98;0.50;;;20.20;99.90;;;;;;5135281;27;20053;-64
2023/07/24 11:33:09;;;;;;;0.73;0.60;;;19.90;99.90;;;;;;5134983;27;20398;-64
2023/07/24 11:35:35;;;;;;;0.45;0.45;;;20.30;99.90;;;;;;5141945;27;20157;-64
2023/07/24 11:38:04;;;;;;;0.10;0.10;;;20.30;99.90;;;;;;5154368;27;20050;-64
2023/07/24 11:40:40;;;;;;;0.75;0.75;;;20.10;99.90;;;;;;5154668;27;20042;-64
2023/07/24 11:43:16;;;;;;;0.68;0.65;;;20.20;99.90;;;;;;5154802;27;20039;-63
2023/07/24 11:45:43;;;;;;;0.60;0.60;;;20.70;99.90;;;;;;5154994;27;20039;-64
2023/07/24 11:48:12;;;;;;;0.30;0.30;;;20.80;99.90;;;;;;5155078;27;20059;-65
2023/07/24 11:50:53;;;;;;;0.35;0.35;;;20.60;99.90;;;;;;5155005;27;20049;-65
2023/07/24 11:53:30;;;;;;;1.17;0.70;;;20.40;99.90;;;;;;5155094;27;20131;-63
2023/07/24 11:55:58;;;;;;;2.05;0.50;;;20.30;99.90;;;;;;5154886;27;20054;-64
2023/07/24 11:58:27;;;;;;;0.40;0.40;;;20.30;99.90;;;;;;5154674;27;20134;-65
2023/07/24 12:00:54;;;;;;;0.73;0.68;;;20.40;99.90;;;;;;5155041;27;20138;-64
2023/07/24 12:03:26;;;;;;;0.52;0.45;;;20.40;99.90;;;;;;5154327;27;20506;-64
2023/07/24 12:05:52;;;;;;;0.30;0.30;;;20.30;99.90;;;;;;5154746;27;20413;-65
2023/07/24 12:08:30;;;;;;;0.52;0.50;;;20.90;99.90;;;;;;5154672;27;20129;-64
2023/07/24 12:10:56;;;;;;;0.80;0.43;;;21.20;99.90;;;;;;5154448;27;20125;-64
2023/07/24 12:13:22;;;;;;;0.20;0.20;;;20.70;99.90;;;;;;5154746;27;20419;-63
2023/07/24 12:15:48;;;;;;;0.20;0.20;;;20.50;99.90;;;;;;5154498;27;20049;-64
2023/07/24 12:18:15;;;;;;;0.22;0.22;;;20.60;99.90;;;;;;5154604;27;20038;-64
2023/07/24 12:20:40;;;;;;;1.00;1.00;;;20.20;99.90;;;;;;5154401;27;20047;-65
2023/07/24 12:23:06;;;;;;;0.20;0.20;;;20.50;99.90;;;;;;5154360;27;20039;-64
2023/07/24 12:25:32;;;;;;;0.65;0.50;;;20.30;99.90;;;;;;5141278;27;20086;-66
2023/07/24 12:27:58;;;;;;;0.45;0.45;;;20.70;99.90;;;;;;5153157;27;20103;-65
2023/07/24 12:30:23;;;;;;;0.20;0.20;;;20.80;99.90;;;;;;5154024;27;20220;-67
2023/07/24 12:32:49;;;;;;;0.20;0.20;;;20.80;99.90;;;;;;5153340;27;20401;-65
2023/07/24 12:35:17;;;;;;;0.20;0.20;;;20.60;99.90;;;;;;5153367;27;20031;-65
2023/07/24 12:37:43;;;;;;;0.17;0.17;;;20.50;99.90;;;;;;5153564;27;20039;-65
2023/07/24 12:40:09;;;;;;;0.20;0.20;;;20.50;99.90;;;;;;5152342;27;20096;-64
2023/07/24 12:42:35;;;;;;;0.10;0.10;;;20.80;99.90;;;;;;5152692;27;20035;-66
2023/07/24 12:45:04;;;;;;;0.10;0.10;;;21.20;99.90;;;;;;5134815;27;20071;-64
2023/07/24 12:47:31;;;;;;;0.50;0.50;;;20.80;99.90;;;;;;5152967;27;20045;-64
2023/07/24 12:49:58;;;;;;;0.38;0.38;;;20.50;99.90;;;;;;5152964;27;20178;-64
2023/07/24 12:52:25;;;;;;;0.93;0.82;;;20.70;99.90;;;;;;5134433;27;20057;-64
2023/07/24 12:54:51;;;;;;;0.22;0.22;;;20.80;99.90;;;;;;5133984;27;20047;-67
2023/07/24 12:57:17;;;;;;;0.10;0.10;;;21.50;99.90;;;;;;5152816;27;20398;-64